• Join FlightAware (Why Join?)
  • Login
  • US Flag 
09:58AM EDT


 

Airport Tracker/Info


-or-


 

Live Flight TrackerFlight Track Log ✈ GTI110 ✈ 21-May-2013 ✈ KATL - KCVG

Flight Track Log - Related Links

Times and Time Zones

All times are in EDT time to prevent confusion due to time zone crossing. See the GTI110 flight status page for this flight to view local times or setup timezone preferences in your user account.

Time Position Orientation Groundspeed Altitude Reporting Facility
EDT Latitude Longitude Course Direction KTS MPH feet Rate Location/Type
12:38AM 33.6500 -84.4833 North 195 224 3,200  Level Atlanta TRACON
12:39AM 33.6667 -84.5667 284° West 258 297 5,700 2,760 Climbing Atlanta TRACON
12:40AM 33.7333 -84.5667 360° North 299 344 8,800 2,400 Climbing Atlanta TRACON
12:42AM 33.9292 -84.4644 23° Northeast 343 395 14,100 2,400 Climbing Atlanta Center
12:43AM 33.9718 -84.2667 North  Level FlightAware Approximate
12:43AM 34.0419 -84.4197 18° North 370 426 17,200  Level Atlanta Center
12:44AM 34.1672 -84.4356 354° North 402 463 19,700 2,400 Climbing Atlanta Center
12:45AM 34.2819 -84.4511 354° North 418 481 22,100 2,100 Climbing Atlanta Center
12:46AM 34.4050 -84.4542 359° North 427 491 24,000 1,800 Climbing Atlanta Center
12:47AM 34.5303 -84.4625 357° North 443 510 25,800 1,680 Climbing Atlanta Center
12:48AM 34.6617 -84.4656 359° North 456 525 27,400 1,500 Climbing Atlanta Center
12:49AM 34.7953 -84.4714 358° North 473 544 28,800 1,500 Climbing Atlanta Center
12:50AM 34.9122 -84.4769 358° North 473 544 30,500 1,920 Climbing Atlanta Center
12:51AM 35.0414 -84.4828 358° North 473 544 32,700 1,200 Climbing Atlanta Center
12:52AM 35.1667 -84.4883 358° North 462 532 33,000 120 Climbing Atlanta Center
12:53AM 35.2939 -84.4942 358° North 457 526 33,000  Level Atlanta Center
12:54AM 35.4211 -84.5000 358° North 457 526 33,000  Level Atlanta Center
12:55AM 35.5525 -84.5058 358° North 462 532 33,000  Level Atlanta Center
12:56AM 35.6819 -84.5117 358° North 462 532 33,000  Level Atlanta Center
12:58AM 35.9914 -84.5242 358° North 469 540 33,000  Level Indianapolis Center
01:00AM 36.1211 -84.5314 357° North 470 541 33,000  Level Indianapolis Center
01:01AM 36.2497 -84.5386 357° North 468 539 33,000  Level Indianapolis Center
01:02AM 36.3794 -84.5469 357° North 468 539 33,000  Level Indianapolis Center
01:03AM 36.5092 -84.5617 355° North 468 539 33,000  Level Indianapolis Center
01:04AM 36.6386 -84.5831 352° North 469 540 33,000  Level Indianapolis Center
01:05AM 36.7661 -84.6042 352° North 465 535 33,000  Level Indianapolis Center
01:06AM 36.8914 -84.6231 353° North 458 527 33,000  Level Indianapolis Center
01:07AM 37.0178 -84.6428 353° North 457 526 33,000  Level Indianapolis Center
01:08AM 37.1461 -84.6628 353° North 457 526 33,000  Level Indianapolis Center
01:09AM 37.2736 -84.6822 353° North 456 525 33,000  Level Indianapolis Center
01:10AM 37.4019 -84.7022 353° North 462 532 33,000 -840 Level Indianapolis Center
01:11AM 37.5278 -84.7228 353° North 455 524 31,400 -2,580 Descending Indianapolis Center
01:12AM 37.6533 -84.7442 352° North 453 521 27,900 -3,120 Descending Indianapolis Center
01:13AM 37.7811 -84.7636 353° North 458 527 25,200 -2,580 Descending Indianapolis Center
01:14AM 37.9033 -84.7833 353° North 444 511 22,800 -2,400 Descending Indianapolis Center
01:15AM 38.0261 -84.8036 353° North 445 512 20,400 -2,400 Descending Indianapolis Center
01:16AM 38.1475 -84.8208 354° North 438 504 18,000 -2,340 Descending Indianapolis Center
01:17AM 38.2617 -84.8400 352° North 415 478 15,800 -2,220 Descending Indianapolis Center
01:18AM 38.3725 -84.8561 353° North 400 460 13,600 -2,220 Descending Indianapolis Center
01:19AM 38.4797 -84.8747 352° North 392 451 11,400 -1,320 Descending Indianapolis Center
01:20AM 38.5806 -84.8906 353° North 370 426 11,000 -360 Descending Indianapolis Center
01:21AM 38.6650 -84.9047 353° North 321 369 10,700 -900 Descending Indianapolis Center
01:22AM 38.7494 -84.9183 353° North 308 354 9,300 -1,320 Descending Indianapolis Center
01:23AM 38.8339 -84.9306 354° North 305 351 8,100 -1,200 Descending Indianapolis Center
01:24AM 38.9153 -84.9447 352° North 299 344 6,900 -1,080 Descending Indianapolis Center
01:25AM 38.9550 -85.0242 303° West 268 308 6,000 -480 Descending Indianapolis Center
01:26AM 39.0142 -85.0531 339° North 237 273 6,000 -300 Level Indianapolis Center
01:27AM 39.0497 -85.0058 46° Northeast 231 266 5,500 -840 Descending Indianapolis Center
01:28AM 39.0461 -84.9300 93° East 219 252 4,400 -1,260 Descending Indianapolis Center
01:29AM 39.0500 -84.8500 86° East 211 243 3,100 -1,140 Descending Cincinnati TRACON
01:30AM 39.0500 -84.7833 90° East 183 211 2,200 -900 Descending Cincinnati TRACON
01:31AM 39.0500 -84.7333 90° East 146 168 1,400 -840 Descending Cincinnati TRACON
01:33AM 39.0333 -84.6667 90° East  Level FlightAware Approximate
01:40AM 39.0488 -84.6678 90° East  Level Estimated